createdAt,value
2018-11-29T00:01:48.890Z,7.85
2018-11-29T00:02:48.791Z,7.83
2018-11-29T00:04:41.542Z,7.87
2018-11-29T00:05:41.458Z,7.95
2018-11-29T00:07:34.206Z,7.93
2018-11-29T00:08:34.112Z,7.85
2018-11-29T00:10:26.855Z,7.90
2018-11-29T00:11:26.769Z,7.85
2018-11-29T00:13:19.752Z,7.90
2018-11-29T00:14:19.664Z,7.93
2018-11-29T00:16:12.676Z,7.90
2018-11-29T00:17:12.586Z,7.89
2018-11-29T00:19:05.576Z,7.93
2018-11-29T00:20:05.479Z,7.90
2018-11-29T00:21:58.229Z,7.86
2018-11-29T00:22:58.136Z,7.93
2018-11-29T00:24:50.878Z,7.90
2018-11-29T00:25:50.784Z,7.93
2018-11-29T00:27:44.358Z,7.97
2018-11-29T00:28:44.262Z,7.92
2018-11-29T00:30:37.007Z,7.90
2018-11-29T00:31:36.923Z,7.93
2018-11-29T00:33:29.674Z,7.89
2018-11-29T00:34:29.581Z,7.89
2018-11-29T00:36:22.323Z,7.85
2018-11-29T00:37:22.246Z,7.87
2018-11-29T00:39:15.218Z,7.85
2018-11-29T00:40:15.140Z,7.80
2018-11-29T00:42:08.119Z,7.82
2018-11-29T00:43:08.026Z,7.89
2018-11-29T00:45:01.023Z,7.82
2018-11-29T00:46:00.937Z,7.87
2018-11-29T00:47:53.685Z,7.87
2018-11-29T00:48:53.590Z,7.86
2018-11-29T00:50:46.328Z,7.80
2018-11-29T00:51:46.243Z,7.86
2018-11-29T00:53:38.988Z,7.83
2018-11-29T00:54:38.895Z,7.86
2018-11-29T00:56:31.632Z,7.89
2018-11-29T00:57:31.550Z,7.80
2018-11-29T00:59:24.289Z,7.83
2018-11-29T01:00:24.196Z,7.79
2018-11-29T01:02:17.188Z,7.82
2018-11-29T01:03:17.090Z,7.86
2018-11-29T01:05:09.834Z,7.89
2018-11-29T01:06:09.748Z,7.87
2018-11-29T01:08:02.756Z,7.86
2018-11-29T01:09:02.665Z,7.85
2018-11-29T01:10:55.401Z,7.93
2018-11-29T01:11:55.314Z,7.93
2018-11-29T01:13:48.312Z,7.93
2018-11-29T01:14:48.211Z,7.87
2018-11-29T01:16:40.949Z,7.92
2018-11-29T01:17:40.864Z,7.89
2018-11-29T01:19:33.607Z,7.95
2018-11-29T01:20:33.519Z,7.87
2018-11-29T01:22:26.267Z,7.90
2018-11-29T01:23:26.167Z,7.87
2018-11-29T01:25:19.140Z,7.92
2018-11-29T01:26:19.057Z,7.90
2018-11-29T01:28:12.064Z,7.92
2018-11-29T01:29:11.972Z,7.86
2018-11-29T01:31:04.983Z,7.89
2018-11-29T01:32:04.900Z,7.89
2018-11-29T01:33:57.885Z,7.90
2018-11-29T01:34:57.801Z,7.83
2018-11-29T01:36:50.538Z,7.87
2018-11-29T01:37:50.454Z,7.86
2018-11-29T01:39:43.200Z,7.90
2018-11-29T01:40:43.106Z,7.89
2018-11-29T01:42:35.850Z,7.86
2018-11-29T01:43:35.757Z,7.90
2018-11-29T01:45:28.497Z,7.83
2018-11-29T01:46:28.414Z,7.86
2018-11-29T01:48:21.160Z,7.90
2018-11-29T01:49:21.069Z,7.86
2018-11-29T01:51:13.873Z,7.85
2018-11-29T01:52:13.790Z,7.86
2018-11-29T01:54:06.642Z,7.87
2018-11-29T01:55:06.551Z,7.82
2018-11-29T01:56:59.523Z,7.86
2018-11-29T01:57:59.437Z,7.87
2018-11-29T01:59:52.189Z,7.87
2018-11-29T02:00:52.097Z,7.85
2018-11-29T02:02:44.846Z,7.87
2018-11-29T02:03:44.756Z,7.86
2018-11-29T02:05:37.495Z,7.85
2018-11-29T02:06:37.410Z,7.97
2018-11-29T02:08:30.159Z,7.93
2018-11-29T02:09:30.065Z,7.90
2018-11-29T02:11:22.834Z,7.89
2018-11-29T02:12:22.748Z,7.87
2018-11-29T02:14:15.743Z,7.92
2018-11-29T02:15:15.650Z,7.89
2018-11-29T02:17:08.651Z,7.85
2018-11-29T02:18:08.570Z,7.83
2018-11-29T02:20:01.312Z,7.87
2018-11-29T02:21:01.222Z,7.89
2018-11-29T02:22:54.198Z,7.87
2018-11-29T02:23:54.108Z,7.90
2018-11-29T02:25:46.842Z,7.83
2018-11-29T02:26:46.758Z,7.87
2018-11-29T02:28:39.504Z,7.86
2018-11-29T02:29:39.414Z,7.89
2018-11-29T02:31:32.146Z,7.89
2018-11-29T02:32:32.061Z,7.85
2018-11-29T02:34:24.804Z,7.83
2018-11-29T02:35:24.714Z,7.87
2018-11-29T02:37:17.705Z,7.86
2018-11-29T02:38:17.621Z,7.80
2018-11-29T02:40:10.608Z,7.82
2018-11-29T02:41:10.518Z,7.86
2018-11-29T02:43:03.499Z,7.89
2018-11-29T02:44:03.408Z,7.79
2018-11-29T02:45:56.383Z,7.89
2018-11-29T02:46:56.299Z,7.87
2018-11-29T02:48:49.291Z,7.93
2018-11-29T02:49:49.192Z,7.82
2018-11-29T02:51:41.934Z,7.80
2018-11-29T02:52:41.844Z,7.85
2018-11-29T02:54:34.591Z,7.85
2018-11-29T02:55:34.501Z,7.90
2018-11-29T02:57:27.237Z,7.89
2018-11-29T02:58:27.156Z,7.92
2018-11-29T03:00:20.144Z,7.95
2018-11-29T03:01:20.057Z,7.98
2018-11-29T03:03:13.038Z,8.01
2018-11-29T03:04:12.945Z,7.95
2018-11-29T03:06:05.749Z,8.02
2018-11-29T03:07:05.667Z,7.97
2018-11-29T03:08:58.412Z,8.02
2018-11-29T03:09:58.317Z,8.10
2018-11-29T03:11:51.301Z,8.10
2018-11-29T03:12:51.219Z,8.04
2018-11-29T03:14:44.268Z,8.08
2018-11-29T03:15:44.175Z,8.07
2018-11-29T03:17:36.913Z,8.01
2018-11-29T03:18:36.826Z,8.01
2018-11-29T03:20:29.580Z,8.02
2018-11-29T03:21:29.487Z,8.04
2018-11-29T03:23:22.229Z,8.01
2018-11-29T03:24:22.137Z,8.11
2018-11-29T03:26:15.126Z,8.10
2018-11-29T03:27:15.033Z,8.07
2018-11-29T03:29:08.054Z,8.08
2018-11-29T03:30:07.962Z,8.00
2018-11-29T03:32:00.969Z,8.15
2018-11-29T03:33:00.871Z,8.07
2018-11-29T03:34:53.611Z,8.04
2018-11-29T03:35:53.519Z,8.10
2018-11-29T03:37:46.262Z,8.01
2018-11-29T03:38:46.180Z,8.05
2018-11-29T03:40:38.933Z,8.01
2018-11-29T03:41:38.845Z,7.98
2018-11-29T03:43:31.589Z,7.89
2018-11-29T03:44:31.501Z,7.95
2018-11-29T03:46:24.233Z,7.85
2018-11-29T03:47:24.149Z,7.85
2018-11-29T03:49:17.142Z,7.93
2018-11-29T03:50:17.059Z,7.85
2018-11-29T03:52:09.855Z,7.93
2018-11-29T03:53:09.771Z,7.97
2018-11-29T03:55:02.765Z,7.93
2018-11-29T03:56:02.667Z,7.90
2018-11-29T03:57:55.405Z,7.85
2018-11-29T03:58:55.324Z,7.86
2018-11-29T04:00:48.075Z,7.89
2018-11-29T04:01:47.989Z,7.77
2018-11-29T04:03:40.729Z,7.72
2018-11-29T04:04:40.642Z,7.72
2018-11-29T04:06:33.388Z,7.68
2018-11-29T04:07:33.302Z,7.67
2018-11-29T04:09:26.237Z,7.64
2018-11-29T04:10:26.150Z,7.60
2018-11-29T04:12:19.135Z,7.71
2018-11-29T04:13:19.055Z,7.61
2018-11-29T04:15:12.043Z,7.64
2018-11-29T04:16:11.947Z,7.63
2018-11-29T04:18:04.953Z,7.68
2018-11-29T04:19:04.865Z,7.68
2018-11-29T04:20:57.857Z,7.60
2018-11-29T04:21:57.767Z,7.63
2018-11-29T04:23:50.498Z,7.64
2018-11-29T04:24:50.415Z,7.67
2018-11-29T04:26:43.151Z,7.69
2018-11-29T04:27:43.065Z,7.69
2018-11-29T04:29:35.840Z,7.67
2018-11-29T04:30:35.749Z,7.61
2018-11-29T04:32:28.487Z,7.64
2018-11-29T04:33:28.402Z,7.68
2018-11-29T04:35:21.152Z,7.63
2018-11-29T04:36:21.060Z,7.52
2018-11-29T04:38:14.090Z,7.68
2018-11-29T04:39:14.006Z,7.61
2018-11-29T04:41:06.997Z,7.64
2018-11-29T04:42:06.906Z,7.63
2018-11-29T04:44:00.195Z,7.64
2018-11-29T04:45:00.084Z,7.61
2018-11-29T04:46:52.833Z,7.63
2018-11-29T04:47:52.741Z,7.63
2018-11-29T04:49:45.493Z,7.57
2018-11-29T04:50:45.389Z,7.57
2018-11-29T04:52:38.134Z,7.67
2018-11-29T04:53:38.049Z,7.63
2018-11-29T04:55:30.793Z,7.55
2018-11-29T04:56:30.694Z,7.57
2018-11-29T04:58:23.441Z,7.63
2018-11-29T04:59:23.353Z,7.60
2018-11-29T05:01:16.366Z,7.67
2018-11-29T05:02:16.278Z,7.55
2018-11-29T05:04:09.295Z,7.63
2018-11-29T05:05:09.185Z,7.48
2018-11-29T05:07:02.171Z,7.52
2018-11-29T05:08:02.086Z,7.53
2018-11-29T05:09:54.829Z,7.52
2018-11-29T05:10:54.749Z,7.52
2018-11-29T05:12:47.503Z,7.53
2018-11-29T05:13:47.420Z,7.48
2018-11-29T05:15:40.176Z,7.50
2018-11-29T05:16:40.082Z,7.50
2018-11-29T05:18:32.829Z,7.49
2018-11-29T05:19:32.739Z,7.48
2018-11-29T05:21:25.480Z,7.49
2018-11-29T05:22:25.389Z,7.48
2018-11-29T05:24:18.371Z,7.55
2018-11-29T05:25:18.275Z,7.53
2018-11-29T05:27:11.264Z,7.52
2018-11-29T05:28:11.170Z,7.49
2018-11-29T05:30:04.162Z,7.52
2018-11-29T05:31:04.070Z,7.53
2018-11-29T05:32:57.050Z,7.49
2018-11-29T05:33:56.965Z,7.53
2018-11-29T05:35:49.737Z,7.49
2018-11-29T05:36:49.647Z,7.49
2018-11-29T05:38:42.386Z,7.57
2018-11-29T05:39:42.305Z,7.50
2018-11-29T05:41:35.247Z,7.55
2018-11-29T05:42:35.157Z,7.49
2018-11-29T05:44:27.908Z,7.53
2018-11-29T05:45:27.809Z,7.53
2018-11-29T05:47:20.548Z,7.53
2018-11-29T05:48:20.459Z,7.50
2018-11-29T05:50:13.445Z,7.58
2018-11-29T05:51:13.354Z,7.49
2018-11-29T05:53:06.327Z,7.57
2018-11-29T05:54:06.240Z,7.52
2018-11-29T05:55:59.255Z,7.52
2018-11-29T05:56:59.156Z,7.46
2018-11-29T05:58:51.898Z,7.52
2018-11-29T05:59:51.810Z,7.50
2018-11-29T06:01:44.556Z,7.53
2018-11-29T06:02:44.466Z,7.52
2018-11-29T06:04:37.247Z,7.58
2018-11-29T06:05:37.149Z,7.53
2018-11-29T06:07:29.892Z,7.64
2018-11-29T06:08:29.805Z,7.55
2018-11-29T06:10:22.569Z,7.53
2018-11-29T06:11:22.468Z,7.57
2018-11-29T06:13:15.450Z,7.57
2018-11-29T06:14:15.361Z,7.53
2018-11-29T06:16:08.348Z,7.53
2018-11-29T06:17:08.255Z,7.58
2018-11-29T06:19:01.245Z,7.68
2018-11-29T06:20:01.158Z,7.55
2018-11-29T06:21:54.151Z,7.57
2018-11-29T06:22:54.060Z,7.67
2018-11-29T06:24:46.815Z,7.63
2018-11-29T06:25:46.718Z,7.55
2018-11-29T06:27:39.462Z,7.61
2018-11-29T06:28:39.372Z,7.55
2018-11-29T06:30:32.114Z,7.61
2018-11-29T06:31:32.023Z,7.53
2018-11-29T06:33:24.769Z,7.50
2018-11-29T06:34:24.682Z,7.48
2018-11-29T06:36:17.499Z,7.46
2018-11-29T06:37:17.416Z,7.46
2018-11-29T06:39:10.468Z,7.49
2018-11-29T06:40:10.380Z,7.53
2018-11-29T06:42:03.372Z,7.52
2018-11-29T06:43:03.280Z,7.50
2018-11-29T06:44:56.021Z,7.50
2018-11-29T06:45:55.935Z,7.53
2018-11-29T06:47:48.995Z,7.46
2018-11-29T06:48:48.899Z,7.52
2018-11-29T06:50:41.645Z,7.55
2018-11-29T06:51:41.559Z,7.52
2018-11-29T06:53:34.292Z,7.57
2018-11-29T06:54:34.204Z,7.53
2018-11-29T06:56:26.951Z,7.55
2018-11-29T06:57:26.857Z,7.63
2018-11-29T06:59:19.713Z,7.50
2018-11-29T07:00:19.640Z,7.50
2018-11-29T07:02:12.613Z,7.50
2018-11-29T07:03:12.523Z,7.50
2018-11-29T07:05:05.494Z,7.53
2018-11-29T07:06:05.412Z,7.52
2018-11-29T07:07:58.224Z,7.58
2018-11-29T07:08:58.129Z,7.55
2018-11-29T07:10:51.427Z,7.49
2018-11-29T07:11:51.333Z,7.53
2018-11-29T07:13:44.075Z,7.52
2018-11-29T07:14:43.986Z,7.50
2018-11-29T07:16:36.728Z,7.49
2018-11-29T07:17:36.637Z,7.53
2018-11-29T07:19:29.380Z,7.53
2018-11-29T07:20:29.301Z,7.63
2018-11-29T07:22:22.040Z,7.61
2018-11-29T07:23:21.948Z,7.64
2018-11-29T07:25:14.925Z,7.63
2018-11-29T07:26:14.836Z,7.57
2018-11-29T07:28:07.830Z,7.63
2018-11-29T07:29:07.740Z,7.61
2018-11-29T07:31:00.774Z,7.67
2018-11-29T07:32:00.683Z,7.64
2018-11-29T07:33:53.671Z,7.68
2018-11-29T07:34:53.586Z,7.74
2018-11-29T07:36:46.338Z,7.68
2018-11-29T07:37:46.243Z,7.71
2018-11-29T07:39:38.984Z,7.69
2018-11-29T07:40:38.902Z,7.80
2018-11-29T07:42:31.670Z,7.75
2018-11-29T07:43:31.575Z,7.82
2018-11-29T07:45:24.322Z,7.77
2018-11-29T07:46:24.233Z,7.89
2018-11-29T07:48:17.229Z,7.80
2018-11-29T07:49:17.136Z,7.82
2018-11-29T07:51:09.964Z,7.83
2018-11-29T07:52:09.869Z,7.87
2018-11-29T07:54:02.738Z,7.86
2018-11-29T07:55:02.645Z,7.82
2018-11-29T07:56:55.634Z,7.89
2018-11-29T07:57:55.540Z,7.89
2018-11-29T07:59:48.295Z,7.93
2018-11-29T08:00:48.209Z,7.86
2018-11-29T08:02:40.960Z,7.77
2018-11-29T08:03:40.881Z,7.77
2018-11-29T08:05:33.607Z,7.71
2018-11-29T08:06:33.522Z,7.64
2018-11-29T08:08:26.775Z,7.68
2018-11-29T08:09:26.681Z,7.71
2018-11-29T08:11:19.715Z,7.64
2018-11-29T08:12:19.637Z,7.63
2018-11-29T08:14:12.697Z,7.63
2018-11-29T08:15:12.612Z,7.68
2018-11-29T08:17:05.372Z,7.61
2018-11-29T08:18:05.265Z,7.72
2018-11-29T08:19:58.247Z,7.77
2018-11-29T08:20:58.161Z,7.67
2018-11-29T08:22:51.164Z,7.60
2018-11-29T08:23:51.068Z,7.63
2018-11-29T08:25:43.817Z,7.64
2018-11-29T08:26:43.727Z,7.67
2018-11-29T08:28:36.478Z,7.64
2018-11-29T08:29:36.390Z,7.68
2018-11-29T08:31:29.130Z,7.69
2018-11-29T08:32:29.035Z,7.61
2018-11-29T08:34:21.802Z,7.71
2018-11-29T08:35:21.695Z,7.67
2018-11-29T08:37:14.685Z,7.67
2018-11-29T08:38:14.593Z,7.74
2018-11-29T08:40:07.331Z,7.67
2018-11-29T08:41:07.252Z,7.72
2018-11-29T08:42:59.998Z,7.77
2018-11-29T08:43:59.899Z,7.72
2018-11-29T08:45:52.876Z,7.77
2018-11-29T08:46:52.790Z,7.85
2018-11-29T08:48:45.546Z,7.79
2018-11-29T08:49:45.452Z,7.83
2018-11-29T08:51:38.204Z,7.80
2018-11-29T08:52:38.112Z,7.75
2018-11-29T08:54:30.861Z,7.82
2018-11-29T08:55:30.771Z,7.86
2018-11-29T08:57:23.518Z,7.85
2018-11-29T08:58:23.425Z,7.82
2018-11-29T09:00:16.407Z,7.83
2018-11-29T09:01:16.323Z,7.86
2018-11-29T09:03:09.127Z,7.85
2018-11-29T09:04:08.978Z,7.85
2018-11-29T09:06:02.074Z,7.85
2018-11-29T09:07:01.987Z,7.87
2018-11-29T09:08:54.982Z,7.92
2018-11-29T09:09:54.892Z,7.85
2018-11-29T09:11:47.646Z,7.97
2018-11-29T09:12:47.553Z,7.90
2018-11-29T09:14:40.291Z,7.95
2018-11-29T09:15:40.216Z,7.89
2018-11-29T09:17:32.958Z,7.98
2018-11-29T09:18:32.869Z,8.04
2018-11-29T09:20:25.605Z,8.04
2018-11-29T09:21:25.521Z,8.07
2018-11-29T09:23:18.263Z,8.01
2018-11-29T09:24:18.173Z,8.04
2018-11-29T09:26:11.664Z,8.02
2018-11-29T09:27:11.577Z,7.93
2018-11-29T09:29:04.568Z,7.93
2018-11-29T09:30:04.481Z,7.89
2018-11-29T09:31:57.680Z,8.01
2018-11-29T09:32:57.579Z,7.98
2018-11-29T09:34:50.333Z,7.95
2018-11-29T09:35:50.262Z,7.93
2018-11-29T09:37:42.991Z,7.98
2018-11-29T09:38:42.903Z,8.01
2018-11-29T09:40:35.647Z,7.97
2018-11-29T09:41:35.560Z,7.92
2018-11-29T09:43:28.305Z,7.92
2018-11-29T09:44:28.209Z,7.97
2018-11-29T09:46:21.282Z,7.89
2018-11-29T09:47:21.196Z,7.93
2018-11-29T09:49:13.948Z,7.93
2018-11-29T09:50:13.926Z,7.90
2018-11-29T09:52:06.594Z,7.87
2018-11-29T09:53:06.503Z,7.92
2018-11-29T09:54:59.487Z,7.90
2018-11-29T09:55:59.401Z,7.90
2018-11-29T09:57:52.144Z,7.90
2018-11-29T09:58:53.673Z,7.93
2018-11-29T10:00:44.791Z,7.86
2018-11-29T10:01:44.705Z,7.86
2018-11-29T10:03:37.463Z,7.83
2018-11-29T10:04:37.370Z,7.85
2018-11-29T10:06:30.114Z,7.86
2018-11-29T10:07:30.030Z,7.86
2018-11-29T10:09:22.778Z,7.83
2018-11-29T10:10:22.688Z,7.77
2018-11-29T10:12:15.438Z,7.83
2018-11-29T10:13:15.340Z,7.82
2018-11-29T10:15:08.354Z,7.85
2018-11-29T10:16:08.265Z,7.83
2018-11-29T10:18:01.256Z,7.80
2018-11-29T10:19:01.162Z,7.90
2018-11-29T10:20:53.915Z,7.75
2018-11-29T10:21:53.827Z,7.85
2018-11-29T10:23:46.581Z,7.74
2018-11-29T10:24:46.486Z,7.75
2018-11-29T10:26:39.228Z,7.85
2018-11-29T10:27:39.143Z,7.79
2018-11-29T10:29:32.287Z,7.90
2018-11-29T10:30:31.805Z,7.85
2018-11-29T10:32:24.554Z,7.79
2018-11-29T10:33:24.467Z,7.75
2018-11-29T10:35:17.447Z,7.79
2018-11-29T10:36:17.364Z,7.83
2018-11-29T10:38:10.369Z,7.89
2018-11-29T10:39:10.301Z,7.87
2018-11-29T10:41:03.212Z,7.86
2018-11-29T10:42:03.130Z,7.82
2018-11-29T10:43:55.880Z,7.83
2018-11-29T10:44:55.789Z,7.82
2018-11-29T10:46:48.775Z,7.79
2018-11-29T10:47:52.300Z,7.77
2018-11-29T10:49:41.433Z,7.79
2018-11-29T10:50:41.340Z,7.69
2018-11-29T10:52:34.091Z,7.63
2018-11-29T10:53:37.753Z,7.68
2018-11-29T10:55:26.743Z,7.63
2018-11-29T10:56:26.654Z,7.69
2018-11-29T10:58:19.651Z,7.60
2018-11-29T10:59:19.561Z,7.63
2018-11-29T11:01:12.537Z,7.61
2018-11-29T11:02:12.453Z,7.61
2018-11-29T11:04:05.239Z,7.68
2018-11-29T11:05:05.160Z,7.63
2018-11-29T11:06:58.123Z,7.63
2018-11-29T11:07:58.043Z,7.68
2018-11-29T11:09:50.788Z,7.61
2018-11-29T11:10:50.702Z,7.53
2018-11-29T11:12:43.451Z,7.57
2018-11-29T11:13:43.359Z,7.52
2018-11-29T11:15:36.104Z,7.53
2018-11-29T11:16:36.016Z,7.68
2018-11-29T11:18:28.759Z,7.50
2018-11-29T11:19:28.667Z,7.46
2018-11-29T11:21:21.409Z,7.48
2018-11-29T11:22:21.319Z,7.52
2018-11-29T11:24:14.422Z,7.50
2018-11-29T11:25:14.326Z,7.57
2018-11-29T11:27:07.074Z,7.64
2018-11-29T11:28:06.980Z,7.82
2018-11-29T11:29:59.730Z,7.64
2018-11-29T11:30:59.635Z,7.75
2018-11-29T11:32:52.638Z,7.68
2018-11-29T11:33:52.546Z,7.79
2018-11-29T11:35:45.283Z,7.68
2018-11-29T11:36:45.198Z,7.64
2018-11-29T11:38:37.949Z,7.64
2018-11-29T11:39:37.859Z,7.68
2018-11-29T11:41:30.635Z,7.69
2018-11-29T11:42:30.551Z,7.61
2018-11-29T11:44:23.298Z,7.68
2018-11-29T11:45:23.207Z,7.75
2018-11-29T11:47:16.206Z,7.75
2018-11-29T11:48:16.118Z,7.75
2018-11-29T11:50:10.890Z,7.77
2018-11-29T11:51:09.034Z,7.74
2018-11-29T11:53:02.020Z,7.80
2018-11-29T11:54:01.928Z,7.85
2018-11-29T11:55:54.782Z,7.89
2018-11-29T11:56:54.586Z,7.83
2018-11-29T11:58:47.595Z,7.90
2018-11-29T11:59:47.494Z,7.89
2018-11-29T12:01:40.236Z,7.83
2018-11-29T12:02:40.149Z,7.87
2018-11-29T12:04:32.913Z,7.80
2018-11-29T12:05:32.817Z,7.77
2018-11-29T12:07:25.561Z,7.85
2018-11-29T12:08:25.470Z,7.80
2018-11-29T12:10:18.465Z,7.85
2018-11-29T12:11:18.370Z,7.80
2018-11-29T12:13:11.363Z,7.86
2018-11-29T12:14:11.269Z,7.90
2018-11-29T12:16:04.259Z,7.86
2018-11-29T12:17:04.168Z,7.92
2018-11-29T12:19:02.255Z,7.93
2018-11-29T12:19:57.066Z,7.87
2018-11-29T12:21:49.816Z,7.85
2018-11-29T12:22:49.726Z,7.86
2018-11-29T12:24:42.472Z,7.82
2018-11-29T12:25:42.385Z,7.77
2018-11-29T12:27:35.124Z,7.75
2018-11-29T12:28:35.040Z,7.64
2018-11-29T12:30:27.786Z,7.63
2018-11-29T12:31:27.694Z,7.67
2018-11-29T12:33:20.688Z,7.64
2018-11-29T12:34:20.594Z,7.64
2018-11-29T12:36:13.347Z,7.57
2018-11-29T12:37:13.262Z,7.53
2018-11-29T12:39:06.244Z,7.53
2018-11-29T12:40:06.157Z,7.49
2018-11-29T12:41:58.897Z,7.37
2018-11-29T12:42:58.815Z,7.43
2018-11-29T12:44:51.554Z,7.37
2018-11-29T12:45:51.462Z,7.28
2018-11-29T12:47:44.212Z,7.37
2018-11-29T12:48:44.131Z,7.40
2018-11-29T12:50:36.875Z,7.46
2018-11-29T12:51:36.786Z,7.49
2018-11-29T12:53:29.532Z,7.68
2018-11-29T12:54:29.440Z,7.64
2018-11-29T12:56:22.187Z,7.67
2018-11-29T12:57:22.102Z,7.72
2018-11-29T12:59:15.088Z,7.87
2018-11-29T13:00:14.992Z,7.85
2018-11-29T13:02:07.980Z,7.93
2018-11-29T13:03:07.895Z,8.01
2018-11-29T13:05:00.642Z,8.11
2018-11-29T13:06:00.552Z,8.10
2018-11-29T13:07:53.292Z,8.12
2018-11-29T13:08:53.206Z,8.11
2018-11-29T13:10:46.194Z,8.20
2018-11-29T13:11:46.102Z,8.12
2018-11-29T13:13:38.863Z,8.33
2018-11-29T13:14:38.769Z,8.30
2018-11-29T13:16:31.522Z,8.22
2018-11-29T13:17:31.430Z,8.29
2018-11-29T13:19:24.177Z,8.22
2018-11-29T13:20:24.086Z,8.34
2018-11-29T13:22:16.892Z,8.28
2018-11-29T13:23:16.808Z,8.25
2018-11-29T13:25:09.796Z,8.29
2018-11-29T13:26:09.698Z,8.23
2018-11-29T13:28:02.672Z,8.23
2018-11-29T13:29:02.592Z,8.20
2018-11-29T13:30:55.381Z,8.26
2018-11-29T13:31:55.255Z,8.29
2018-11-29T13:33:48.120Z,8.28
2018-11-29T13:34:47.916Z,8.29
2018-11-29T13:36:40.658Z,8.26
2018-11-29T13:37:40.574Z,8.25
2018-11-29T13:39:33.333Z,8.18
2018-11-29T13:40:33.237Z,8.15
2018-11-29T13:42:25.971Z,8.16
2018-11-29T13:43:25.886Z,8.12
2018-11-29T13:45:18.885Z,8.20
2018-11-29T13:46:18.790Z,8.10
2018-11-29T13:48:11.540Z,8.12
2018-11-29T13:49:11.451Z,8.10
2018-11-29T13:51:04.442Z,8.16
2018-11-29T13:52:04.425Z,8.15
2018-11-29T13:53:57.107Z,8.11
2018-11-29T13:54:57.014Z,8.20
2018-11-29T13:56:50.020Z,8.22
2018-11-29T13:57:49.934Z,8.29
2018-11-29T13:59:43.000Z,8.20
2018-11-29T14:00:42.900Z,8.34
2018-11-29T14:02:35.639Z,8.29
2018-11-29T14:03:35.561Z,8.25
2018-11-29T14:05:28.310Z,8.20
2018-11-29T14:06:28.218Z,8.23
2018-11-29T14:08:21.215Z,8.16
2018-11-29T14:09:21.133Z,8.20
2018-11-29T14:11:14.348Z,8.12
2018-11-29T14:12:14.252Z,8.19
2018-11-29T14:14:08.064Z,8.22
2018-11-29T14:15:07.165Z,8.23
2018-11-29T14:16:59.913Z,8.28
2018-11-29T14:17:59.827Z,8.22
2018-11-29T14:19:52.586Z,8.36
2018-11-29T14:20:52.497Z,8.23
2018-11-29T14:22:45.416Z,8.23
2018-11-29T14:23:45.368Z,8.41
2018-11-29T14:25:38.080Z,8.34
2018-11-29T14:26:37.985Z,8.33
2018-11-29T14:28:30.729Z,8.40
2018-11-29T14:29:30.641Z,8.44
2018-11-29T14:31:23.388Z,8.44
2018-11-29T14:32:23.297Z,8.44
2018-11-29T14:34:16.284Z,8.41
2018-11-29T14:35:16.222Z,8.41
2018-11-29T14:37:08.937Z,8.34
2018-11-29T14:38:08.851Z,8.37
2018-11-29T14:40:01.841Z,8.33
2018-11-29T14:41:01.755Z,8.34
2018-11-29T14:42:54.494Z,8.37
2018-11-29T14:43:54.410Z,8.30
2018-11-29T14:45:47.656Z,8.30
2018-11-29T14:46:47.574Z,8.34
2018-11-29T14:48:40.308Z,8.38
2018-11-29T14:49:40.219Z,8.33
2018-11-29T14:51:33.200Z,8.37
2018-11-29T14:52:32.869Z,8.33
2018-11-29T14:54:25.618Z,8.48
2018-11-29T14:55:25.529Z,8.43
2018-11-29T14:57:18.517Z,8.48
2018-11-29T14:58:19.809Z,8.55
2018-11-29T15:00:11.432Z,8.58
2018-11-29T15:01:11.336Z,8.61
2018-11-29T15:03:04.079Z,8.59
2018-11-29T15:04:03.991Z,8.63
2018-11-29T15:05:56.740Z,8.62
2018-11-29T15:06:56.666Z,8.76
2018-11-29T15:08:49.628Z,8.91
2018-11-29T15:09:49.546Z,8.94
2018-11-29T15:11:42.289Z,8.95
2018-11-29T15:12:42.198Z,9.23
2018-11-29T15:14:34.952Z,9.29
2018-11-29T15:15:34.858Z,9.48
2018-11-29T15:17:27.596Z,9.51
2018-11-29T15:18:27.519Z,9.54
2018-11-29T15:20:20.509Z,9.72
2018-11-29T15:21:20.423Z,9.76
2018-11-29T15:23:13.225Z,9.83
2018-11-29T15:24:13.143Z,9.81
2018-11-29T15:26:06.333Z,9.81
2018-11-29T15:27:06.251Z,9.87
2018-11-29T15:28:58.988Z,9.84
2018-11-29T15:29:58.901Z,9.91
2018-11-29T15:31:51.654Z,9.87
2018-11-29T15:32:51.558Z,9.87
2018-11-29T15:34:44.343Z,9.86
2018-11-29T15:35:44.238Z,9.79
2018-11-29T15:37:37.054Z,9.90
2018-11-29T15:38:36.896Z,9.83
2018-11-29T15:40:29.843Z,9.84
2018-11-29T15:41:29.751Z,9.86
2018-11-29T15:43:22.626Z,9.72
2018-11-29T15:44:22.542Z,9.76
2018-11-29T15:46:15.293Z,9.81
2018-11-29T15:47:15.200Z,9.64
2018-11-29T15:49:08.453Z,9.76
2018-11-29T15:50:08.390Z,9.72
2018-11-29T15:52:01.362Z,9.84
2018-11-29T15:53:01.284Z,9.86
2018-11-29T15:54:54.041Z,9.83
2018-11-29T15:55:53.987Z,9.83
2018-11-29T15:57:46.678Z,9.90
2018-11-29T15:58:46.594Z,9.81
2018-11-29T16:00:39.354Z,9.79
2018-11-29T16:01:39.257Z,9.81
2018-11-29T16:03:32.004Z,9.87
2018-11-29T16:04:31.922Z,9.86
2018-11-29T16:06:24.685Z,9.87
2018-11-29T16:07:24.592Z,9.91
2018-11-29T16:09:17.584Z,9.83
2018-11-29T16:10:17.518Z,9.89
2018-11-29T16:12:10.491Z,9.76
2018-11-29T16:13:10.392Z,9.79
2018-11-29T16:15:03.399Z,9.76
2018-11-29T16:16:03.299Z,9.75
2018-11-29T16:17:56.292Z,9.71
2018-11-29T16:18:56.201Z,9.66
2018-11-29T16:20:49.198Z,9.74
2018-11-29T16:21:51.279Z,9.65
2018-11-29T16:23:43.004Z,9.66
2018-11-29T16:24:42.624Z,9.61
2018-11-29T16:26:35.381Z,9.61
2018-11-29T16:27:35.289Z,9.50
2018-11-29T16:29:28.033Z,9.58
2018-11-29T16:30:27.947Z,9.54
2018-11-29T16:32:20.946Z,9.57
2018-11-29T16:33:20.857Z,9.50
2018-11-29T16:35:13.849Z,9.46
2018-11-29T16:36:13.764Z,9.50
2018-11-29T16:38:06.850Z,9.46
2018-11-29T16:39:06.758Z,9.42
2018-11-29T16:40:59.511Z,9.35
2018-11-29T16:41:59.479Z,9.39
2018-11-29T16:43:52.167Z,9.42
2018-11-29T16:44:52.090Z,9.40
2018-11-29T16:46:45.131Z,9.36
2018-11-29T16:47:45.043Z,9.43
2018-11-29T16:49:37.781Z,9.31
2018-11-29T16:50:37.697Z,9.33
2018-11-29T16:52:30.443Z,9.42
2018-11-29T16:53:30.353Z,9.28
2018-11-29T16:55:23.098Z,9.28
2018-11-29T16:56:23.011Z,9.29
2018-11-29T16:58:16.001Z,9.29
2018-11-29T16:59:15.913Z,9.28
2018-11-29T17:01:09.175Z,9.32
2018-11-29T17:02:08.818Z,9.21
2018-11-29T17:04:01.838Z,9.20
2018-11-29T17:05:01.766Z,9.21
2018-11-29T17:06:54.742Z,9.26
2018-11-29T17:07:54.656Z,9.26
2018-11-29T17:09:47.446Z,9.23
2018-11-29T17:10:47.363Z,9.20
2018-11-29T17:12:40.107Z,9.20
2018-11-29T17:13:40.018Z,9.14
2018-11-29T17:15:32.761Z,9.13
2018-11-29T17:16:32.674Z,9.08
2018-11-29T17:18:25.420Z,9.10
2018-11-29T17:19:25.330Z,9.08
2018-11-29T17:21:18.139Z,9.17
2018-11-29T17:22:18.051Z,9.08
2018-11-29T17:24:11.075Z,9.14
2018-11-29T17:25:10.989Z,9.05
2018-11-29T17:27:03.970Z,8.98
2018-11-29T17:28:03.886Z,8.94
2018-11-29T17:29:56.876Z,9.04
2018-11-29T17:30:56.794Z,8.95
2018-11-29T17:32:49.790Z,8.95
2018-11-29T17:33:49.702Z,8.91
2018-11-29T17:35:42.463Z,8.95
2018-11-29T17:36:42.372Z,8.94
2018-11-29T17:38:35.135Z,8.91
2018-11-29T17:39:35.040Z,8.87
2018-11-29T17:41:27.782Z,8.76
2018-11-29T17:42:27.706Z,8.80
2018-11-29T17:44:20.681Z,8.77
2018-11-29T17:45:20.597Z,8.73
2018-11-29T17:47:13.580Z,8.77
2018-11-29T17:48:13.489Z,8.77
2018-11-29T17:50:06.466Z,8.71
2018-11-29T17:51:06.387Z,8.66
2018-11-29T17:52:59.377Z,8.84
2018-11-29T17:53:59.286Z,8.79
2018-11-29T17:55:52.025Z,8.70
2018-11-29T17:56:51.943Z,8.73
2018-11-29T17:58:44.695Z,8.76
2018-11-29T17:59:44.604Z,8.71
2018-11-29T18:01:37.354Z,8.63
2018-11-29T18:02:37.262Z,8.65
2018-11-29T18:04:30.001Z,8.76
2018-11-29T18:05:29.921Z,8.66
2018-11-29T18:07:22.750Z,8.71
2018-11-29T18:08:22.642Z,8.59
2018-11-29T18:10:15.624Z,8.61
2018-11-29T18:11:15.541Z,8.61
2018-11-29T18:13:08.294Z,8.63
2018-11-29T18:14:08.201Z,8.59
2018-11-29T18:16:01.204Z,8.61
2018-11-29T18:17:01.144Z,8.61
2018-11-29T18:18:54.097Z,8.58
2018-11-29T18:19:54.011Z,8.63
2018-11-29T18:21:46.751Z,8.66
2018-11-29T18:22:46.660Z,8.62
2018-11-29T18:24:39.420Z,8.71
2018-11-29T18:25:39.321Z,8.76
2018-11-29T18:27:32.065Z,8.59
2018-11-29T18:28:31.977Z,8.61
2018-11-29T18:30:24.730Z,8.76
2018-11-29T18:31:24.646Z,8.74
2018-11-29T18:33:17.658Z,8.77
2018-11-29T18:34:17.567Z,8.77
2018-11-29T18:36:14.127Z,8.73
2018-11-29T18:37:11.234Z,8.74
2018-11-29T18:39:04.223Z,8.77
2018-11-29T18:40:04.138Z,8.71
2018-11-29T18:41:57.134Z,8.74
2018-11-29T18:42:57.040Z,8.76
2018-11-29T18:44:50.019Z,8.77
2018-11-29T18:45:49.935Z,8.79
2018-11-29T18:47:42.685Z,8.79
2018-11-29T18:48:42.592Z,8.79
2018-11-29T18:50:35.332Z,8.76
2018-11-29T18:51:35.248Z,8.76
2018-11-29T18:53:27.993Z,8.79
2018-11-29T18:54:27.905Z,8.80
2018-11-29T18:56:20.898Z,8.80
2018-11-29T18:57:20.812Z,8.83
2018-11-29T18:59:13.677Z,8.87
2018-11-29T19:00:13.594Z,8.87
2018-11-29T19:02:06.771Z,8.86
2018-11-29T19:03:06.682Z,8.86
2018-11-29T19:04:59.692Z,8.92
2018-11-29T19:05:59.648Z,8.95
2018-11-29T19:07:52.354Z,8.89
2018-11-29T19:08:52.268Z,8.92
2018-11-29T19:10:45.004Z,8.83